createdAt,value
2019-05-21T00:01:52.256Z,14.56
2019-05-21T00:04:28.259Z,14.52
2019-05-21T00:06:51.956Z,14.61
2019-05-21T00:09:21.236Z,14.49
2019-05-21T00:11:50.235Z,14.46
2019-05-21T00:14:19.178Z,14.41
2019-05-21T00:16:48.117Z,14.34
2019-05-21T00:19:16.745Z,14.37
2019-05-21T00:21:45.692Z,14.30
2019-05-21T00:24:14.992Z,14.40
2019-05-21T00:26:43.990Z,14.37
2019-05-21T00:29:49.030Z,14.23
2019-05-21T00:32:53.964Z,14.10
2019-05-21T00:35:58.857Z,14.14
2019-05-21T00:39:04.361Z,14.17
2019-05-21T00:41:59.651Z,14.15
2019-05-21T00:44:29.062Z,14.20
2019-05-21T00:46:57.756Z,14.20
2019-05-21T00:49:26.769Z,14.16
2019-05-21T00:52:07.041Z,14.16
2019-05-21T00:54:26.364Z,14.23
2019-05-21T00:56:55.193Z,14.06
2019-05-21T00:59:24.150Z,14.10
2019-05-21T01:01:52.773Z,14.11
2019-05-21T01:04:21.446Z,14.00
2019-05-21T01:06:50.114Z,13.98
2019-05-21T01:09:18.729Z,13.99
2019-05-21T01:11:47.460Z,13.93
2019-05-21T01:14:16.359Z,13.86
2019-05-21T01:16:45.005Z,13.91
2019-05-21T01:19:14.077Z,13.87
2019-05-21T01:21:43.049Z,13.97
2019-05-21T01:24:12.039Z,13.79
2019-05-21T01:26:40.679Z,13.80
2019-05-21T01:29:09.378Z,13.78
2019-05-21T01:31:38.300Z,13.95
2019-05-21T01:34:06.971Z,13.92
2019-05-21T01:36:36.296Z,13.99
2019-05-21T01:39:05.761Z,14.03
2019-05-21T01:41:34.675Z,14.00
2019-05-21T01:44:03.651Z,14.07
2019-05-21T01:46:32.285Z,13.89
2019-05-21T01:49:01.259Z,14.06
2019-05-21T01:51:29.868Z,13.91
2019-05-21T01:53:58.839Z,13.86
2019-05-21T01:56:28.241Z,13.81
2019-05-21T01:58:56.889Z,13.78
2019-05-21T02:01:25.533Z,13.67
2019-05-21T02:03:54.507Z,13.69
2019-05-21T02:06:24.022Z,13.62
2019-05-21T02:08:52.717Z,13.67
2019-05-21T02:11:21.690Z,13.60
2019-05-21T02:13:50.690Z,13.65
2019-05-21T02:16:19.304Z,13.57
2019-05-21T02:18:47.948Z,13.68
2019-05-21T02:21:16.953Z,13.61
2019-05-21T02:23:45.939Z,13.51
2019-05-21T02:26:14.843Z,13.55
2019-05-21T02:28:43.934Z,13.50
2019-05-21T02:31:12.578Z,13.60
2019-05-21T02:33:41.229Z,13.52
2019-05-21T02:36:10.107Z,13.55
2019-05-21T02:38:39.132Z,13.55
2019-05-21T02:41:07.854Z,13.63
2019-05-21T02:43:36.763Z,13.64
2019-05-21T02:46:05.769Z,13.62
2019-05-21T02:48:34.401Z,13.60
2019-05-21T02:51:03.135Z,13.63
2019-05-21T02:53:34.459Z,13.58
2019-05-21T02:56:02.401Z,13.56
2019-05-21T02:58:31.358Z,13.46
2019-05-21T03:01:06.872Z,13.48
2019-05-21T03:03:35.996Z,13.42
2019-05-21T03:06:13.647Z,13.48
2019-05-21T03:08:35.085Z,13.54
2019-05-21T03:11:04.097Z,13.52
2019-05-21T03:13:33.102Z,13.48
2019-05-21T03:16:02.089Z,13.42
2019-05-21T03:18:31.093Z,13.41
2019-05-21T03:21:00.379Z,13.26
2019-05-21T03:23:29.459Z,13.30
2019-05-21T03:25:58.803Z,13.32
2019-05-21T03:28:27.429Z,13.33
2019-05-21T03:30:56.984Z,13.29
2019-05-21T03:33:26.171Z,13.36
2019-05-21T03:35:55.169Z,13.33
2019-05-21T03:38:23.828Z,13.35
2019-05-21T03:40:52.488Z,13.35
2019-05-21T03:43:21.565Z,13.35
2019-05-21T03:45:50.229Z,13.37
2019-05-21T03:48:18.950Z,13.38
2019-05-21T03:50:47.902Z,13.42
2019-05-21T03:53:17.198Z,13.47
2019-05-21T03:55:45.849Z,13.55
2019-05-21T03:58:14.798Z,13.51
2019-05-21T04:00:43.464Z,13.49
2019-05-21T04:03:12.450Z,13.58
2019-05-21T04:05:41.343Z,13.52
2019-05-21T04:08:10.319Z,13.53
2019-05-21T04:10:38.984Z,13.48
2019-05-21T04:13:08.652Z,13.50
2019-05-21T04:15:54.208Z,13.48
2019-05-21T04:18:27.204Z,13.43
2019-05-21T04:20:55.862Z,13.48
2019-05-21T04:23:24.886Z,13.45
2019-05-21T04:25:53.520Z,13.64
2019-05-21T04:28:22.453Z,13.65
2019-05-21T04:30:51.876Z,13.51
2019-05-21T04:33:20.502Z,13.48
2019-05-21T04:35:49.444Z,13.58
2019-05-21T04:38:18.106Z,13.68
2019-05-21T04:40:47.127Z,13.70
2019-05-21T04:43:15.776Z,13.71
2019-05-21T04:45:45.241Z,13.74
2019-05-21T04:48:13.947Z,13.66
2019-05-21T04:50:43.206Z,13.54
2019-05-21T04:53:12.183Z,13.52
2019-05-21T04:55:40.868Z,13.66
2019-05-21T04:58:09.787Z,13.67
2019-05-21T05:00:38.406Z,13.72
2019-05-21T05:03:07.334Z,13.76
2019-05-21T05:05:36.004Z,13.79
2019-05-21T05:08:04.809Z,13.79
2019-05-21T05:10:33.827Z,13.79
2019-05-21T05:13:03.022Z,13.70
2019-05-21T05:15:31.999Z,13.71
2019-05-21T05:18:01.034Z,13.65
2019-05-21T05:20:29.681Z,13.67
2019-05-21T05:22:58.572Z,13.77
2019-05-21T05:25:27.215Z,13.75
2019-05-21T05:27:55.891Z,13.67
2019-05-21T05:30:24.875Z,13.67
2019-05-21T05:32:53.842Z,13.66
2019-05-21T05:35:22.833Z,13.66
2019-05-21T05:37:51.562Z,13.65
2019-05-21T05:40:20.822Z,13.81
2019-05-21T05:42:50.229Z,13.83
2019-05-21T05:45:19.045Z,13.82
2019-05-21T05:47:48.011Z,13.81
2019-05-21T05:50:18.615Z,13.78
2019-05-21T05:52:47.327Z,13.65
2019-05-21T05:55:16.132Z,13.66
2019-05-21T05:57:45.024Z,13.80
2019-05-21T06:00:15.040Z,13.87
2019-05-21T06:02:43.693Z,13.87
2019-05-21T06:05:12.809Z,13.93
2019-05-21T06:07:41.803Z,14.02
2019-05-21T06:10:10.589Z,13.88
2019-05-21T06:12:39.592Z,13.95
2019-05-21T06:15:08.340Z,13.93
2019-05-21T06:17:36.980Z,13.99
2019-05-21T06:20:06.464Z,13.91
2019-05-21T06:22:35.456Z,13.87
2019-05-21T06:25:05.101Z,14.03
2019-05-21T06:27:34.063Z,14.04
2019-05-21T06:30:02.826Z,14.06
2019-05-21T06:32:31.742Z,14.31
2019-05-21T06:35:00.414Z,14.28
2019-05-21T06:37:29.058Z,14.39
2019-05-21T06:39:57.698Z,14.30
2019-05-21T06:42:26.346Z,14.33
2019-05-21T06:44:54.999Z,14.27
2019-05-21T06:47:24.577Z,14.48
2019-05-21T06:49:53.469Z,14.56
2019-05-21T06:52:22.558Z,14.49
2019-05-21T06:54:51.269Z,14.38
2019-05-21T06:57:19.915Z,14.42
2019-05-21T06:59:49.130Z,14.55
2019-05-21T07:02:18.445Z,14.68
2019-05-21T07:04:47.819Z,14.64
2019-05-21T07:07:16.538Z,14.71
2019-05-21T07:09:45.517Z,14.62
2019-05-21T07:12:14.266Z,14.75
2019-05-21T07:14:42.972Z,14.70
2019-05-21T07:17:11.895Z,14.66
2019-05-21T07:19:40.773Z,14.56
2019-05-21T07:22:12.963Z,14.58
2019-05-21T07:24:39.841Z,14.58
2019-05-21T07:27:08.814Z,14.57
2019-05-21T07:29:37.419Z,14.55
2019-05-21T07:32:06.359Z,14.54
2019-05-21T07:34:35.008Z,14.48
2019-05-21T07:37:03.658Z,14.62
2019-05-21T07:39:32.633Z,14.79
2019-05-21T07:42:01.262Z,14.82
2019-05-21T07:44:29.891Z,14.91
2019-05-21T07:46:58.885Z,15.05
2019-05-21T07:49:28.150Z,14.87
2019-05-21T07:51:57.389Z,14.94
2019-05-21T07:54:28.198Z,15.10
2019-05-21T07:56:57.089Z,15.24
2019-05-21T07:59:25.832Z,15.14
2019-05-21T08:01:54.808Z,15.10
2019-05-21T08:04:23.997Z,15.16
2019-05-21T08:06:52.661Z,15.01
2019-05-21T08:09:21.334Z,15.20
2019-05-21T08:11:49.956Z,15.04
2019-05-21T08:14:18.841Z,15.20
2019-05-21T08:16:47.501Z,15.22
2019-05-21T08:19:16.523Z,15.20
2019-05-21T08:21:45.137Z,15.43
2019-05-21T08:24:13.759Z,15.37
2019-05-21T08:26:42.644Z,15.36
2019-05-21T08:29:11.346Z,15.48
2019-05-21T08:31:40.285Z,15.93
2019-05-21T08:34:08.942Z,16.02
2019-05-21T08:36:37.861Z,16.02
2019-05-21T08:39:07.647Z,16.00
2019-05-21T08:41:36.653Z,15.76
2019-05-21T08:44:05.386Z,16.11
2019-05-21T08:46:34.940Z,16.26
2019-05-21T08:49:03.839Z,16.95
2019-05-21T08:51:32.557Z,17.00
2019-05-21T08:54:01.519Z,16.90
2019-05-21T08:56:30.152Z,17.02
2019-05-21T08:58:59.104Z,16.60
2019-05-21T09:01:28.086Z,16.66
2019-05-21T09:03:57.084Z,16.48
2019-05-21T09:06:26.063Z,16.43
2019-05-21T09:08:55.293Z,16.87
2019-05-21T09:11:24.263Z,16.55
2019-05-21T09:13:53.261Z,16.47
2019-05-21T09:16:21.913Z,16.23
2019-05-21T09:18:50.859Z,15.85
2019-05-21T09:21:20.143Z,15.69
2019-05-21T09:23:48.811Z,15.71
2019-05-21T09:26:18.099Z,15.62
2019-05-21T09:28:46.947Z,15.57
2019-05-21T09:31:15.914Z,15.63
2019-05-21T09:33:44.803Z,15.38
2019-05-21T09:36:13.997Z,15.04
2019-05-21T09:38:43.338Z,15.18
2019-05-21T09:41:12.195Z,15.17
2019-05-21T09:43:41.186Z,15.22
2019-05-21T09:46:09.827Z,15.07
2019-05-21T09:48:38.764Z,15.11
2019-05-21T09:51:07.768Z,15.23
2019-05-21T09:53:37.363Z,15.07
2019-05-21T09:56:24.179Z,15.14
2019-05-21T09:58:54.717Z,15.24
2019-05-21T10:01:29.847Z,15.28
2019-05-21T10:03:59.114Z,15.24
2019-05-21T10:06:28.147Z,15.17
2019-05-21T10:08:56.775Z,15.21
2019-05-21T10:11:25.431Z,15.27
2019-05-21T10:13:54.430Z,15.36
2019-05-21T10:16:23.728Z,15.34
2019-05-21T10:18:52.437Z,15.37
2019-05-21T10:21:21.572Z,15.45
2019-05-21T10:23:50.484Z,15.57
2019-05-21T10:26:19.780Z,15.63
2019-05-21T10:28:49.104Z,15.70
2019-05-21T10:31:18.073Z,15.65
2019-05-21T10:33:47.597Z,15.78
2019-05-21T10:36:16.990Z,15.93
2019-05-21T10:38:45.977Z,15.94
2019-05-21T10:41:15.071Z,15.86
2019-05-21T10:43:43.984Z,15.75
2019-05-21T10:46:12.695Z,15.60
2019-05-21T10:48:41.647Z,15.69
2019-05-21T10:51:10.807Z,15.54
2019-05-21T10:53:40.041Z,15.50
2019-05-21T10:56:08.747Z,15.53
2019-05-21T10:58:37.619Z,15.68
2019-05-21T11:01:16.332Z,15.60
2019-05-21T11:04:04.693Z,16.08
2019-05-21T11:06:33.805Z,16.45
2019-05-21T11:09:02.533Z,16.34
2019-05-21T11:11:31.166Z,16.39
2019-05-21T11:14:00.240Z,16.60
2019-05-21T11:16:29.453Z,16.82
2019-05-21T11:18:58.450Z,16.89
2019-05-21T11:21:27.119Z,16.81
2019-05-21T11:23:56.276Z,16.77
2019-05-21T11:26:25.089Z,16.65
2019-05-21T11:28:54.016Z,16.83
2019-05-21T11:31:22.903Z,16.73
2019-05-21T11:33:51.906Z,16.85
2019-05-21T11:36:20.900Z,16.71
2019-05-21T11:38:49.796Z,16.83
2019-05-21T11:41:19.088Z,16.78
2019-05-21T11:43:48.085Z,16.71
2019-05-21T11:46:16.738Z,16.47
2019-05-21T11:48:45.672Z,16.70
2019-05-21T11:51:14.392Z,16.50
2019-05-21T11:53:43.342Z,16.42
2019-05-21T11:56:12.358Z,16.48
2019-05-21T11:58:40.999Z,16.13
2019-05-21T12:01:10.221Z,16.12
2019-05-21T12:03:39.520Z,16.17
2019-05-21T12:06:08.820Z,16.19
2019-05-21T12:08:38.019Z,16.19
2019-05-21T12:11:06.902Z,16.26
2019-05-21T12:13:35.636Z,16.33
2019-05-21T12:16:04.692Z,16.30
2019-05-21T12:18:33.588Z,16.39
2019-05-21T12:21:02.296Z,16.31
2019-05-21T12:23:31.879Z,16.55
2019-05-21T12:26:01.227Z,16.28
2019-05-21T12:28:30.479Z,16.13
2019-05-21T12:30:59.681Z,16.38
2019-05-21T12:33:28.571Z,16.22
2019-05-21T12:35:57.872Z,16.00
2019-05-21T12:38:26.512Z,16.11
2019-05-21T12:40:55.147Z,16.06
2019-05-21T12:43:24.142Z,15.96
2019-05-21T12:45:52.846Z,16.01
2019-05-21T12:48:21.877Z,16.21
2019-05-21T12:50:50.807Z,16.29
2019-05-21T12:53:19.715Z,16.36
2019-05-21T12:55:48.355Z,16.20
2019-05-21T12:58:17.002Z,16.11
2019-05-21T13:00:45.719Z,16.05
2019-05-21T13:03:14.652Z,15.97
2019-05-21T13:05:43.313Z,15.84
2019-05-21T13:08:12.786Z,15.98
2019-05-21T13:10:41.738Z,15.98
2019-05-21T13:13:10.372Z,15.92
2019-05-21T13:15:39.330Z,15.87
2019-05-21T13:18:07.937Z,15.80
2019-05-21T13:20:36.602Z,15.74
2019-05-21T13:23:05.781Z,15.75
2019-05-21T13:25:35.254Z,15.63
2019-05-21T13:28:03.923Z,15.62
2019-05-21T13:30:32.600Z,15.82
2019-05-21T13:33:01.556Z,16.00
2019-05-21T13:35:30.550Z,16.00
2019-05-21T13:37:59.542Z,15.96
2019-05-21T13:40:29.158Z,15.92
2019-05-21T13:42:58.356Z,15.95
2019-05-21T13:45:27.088Z,15.95
2019-05-21T13:47:56.082Z,16.04
2019-05-21T13:50:24.634Z,16.06
2019-05-21T13:52:53.285Z,16.13
2019-05-21T13:55:22.012Z,16.20
2019-05-21T13:57:50.913Z,16.16
2019-05-21T14:00:26.528Z,16.12
2019-05-21T14:02:55.439Z,16.32
2019-05-21T14:05:24.420Z,16.44
2019-05-21T14:07:53.510Z,16.35
2019-05-21T14:10:22.235Z,16.38
2019-05-21T14:12:51.192Z,16.36
2019-05-21T14:15:19.927Z,16.18
2019-05-21T14:17:48.871Z,16.22
2019-05-21T14:20:18.069Z,16.26
2019-05-21T14:22:46.739Z,16.17
2019-05-21T14:25:15.749Z,16.05
2019-05-21T14:27:45.382Z,16.04
2019-05-21T14:30:14.757Z,16.12
2019-05-21T14:32:43.753Z,16.16
2019-05-21T14:35:13.061Z,16.09
2019-05-21T14:37:42.252Z,16.23
2019-05-21T14:40:11.538Z,16.31
2019-05-21T14:42:58.517Z,16.33
2019-05-21T14:45:14.457Z,16.30
2019-05-21T14:47:43.118Z,16.32
2019-05-21T14:50:12.139Z,16.44
2019-05-21T14:52:41.268Z,16.48
2019-05-21T14:55:10.064Z,16.53
2019-05-21T14:57:39.116Z,16.61
2019-05-21T15:00:19.142Z,16.67
2019-05-21T15:02:48.453Z,16.84
2019-05-21T15:05:17.174Z,16.71
2019-05-21T15:07:49.697Z,16.72
2019-05-21T15:10:16.929Z,16.96
2019-05-21T15:12:45.545Z,16.95
2019-05-21T15:15:14.574Z,16.94
2019-05-21T15:17:43.209Z,17.11
2019-05-21T15:20:21.128Z,17.09
2019-05-21T15:22:50.060Z,16.96
2019-05-21T15:25:19.039Z,16.92
2019-05-21T15:27:48.032Z,16.89
2019-05-21T15:30:19.901Z,16.87
2019-05-21T15:32:48.508Z,16.87
2019-05-21T15:35:17.198Z,16.84
2019-05-21T15:37:46.086Z,16.99
2019-05-21T15:40:15.163Z,17.13
2019-05-21T15:42:44.153Z,17.16
2019-05-21T15:45:12.965Z,17.08
2019-05-21T15:47:41.632Z,17.15
2019-05-21T15:50:10.319Z,17.41
2019-05-21T15:52:39.318Z,17.39
2019-05-21T15:55:08.266Z,17.40
2019-05-21T15:57:37.287Z,17.32
2019-05-21T16:00:07.118Z,17.15
2019-05-21T16:02:36.436Z,17.21
2019-05-21T16:05:05.704Z,17.10
2019-05-21T16:07:34.340Z,17.22
2019-05-21T16:10:02.986Z,17.35
2019-05-21T16:12:31.633Z,17.32
2019-05-21T16:15:00.856Z,17.20
2019-05-21T16:17:29.501Z,17.12
2019-05-21T16:19:58.195Z,17.03
2019-05-21T16:22:27.430Z,17.14
2019-05-21T16:24:56.425Z,17.07
2019-05-21T16:27:25.418Z,17.09
2019-05-21T16:29:54.717Z,16.94
2019-05-21T16:32:23.656Z,16.87
2019-05-21T16:34:52.522Z,16.79
2019-05-21T16:37:24.162Z,16.80
2019-05-21T16:39:53.457Z,16.79
2019-05-21T16:42:22.388Z,16.72
2019-05-21T16:44:51.061Z,16.74
2019-05-21T16:47:19.900Z,16.64
2019-05-21T16:49:48.809Z,16.60
2019-05-21T16:52:17.711Z,16.41
2019-05-21T16:54:46.607Z,16.38
2019-05-21T16:57:15.792Z,16.37
2019-05-21T16:59:44.520Z,16.33
2019-05-21T17:02:13.482Z,16.29
2019-05-21T17:04:42.680Z,16.26
2019-05-21T17:07:11.724Z,16.23
2019-05-21T17:09:40.670Z,16.22
2019-05-21T17:12:09.465Z,16.34
2019-05-21T17:14:38.450Z,16.37
2019-05-21T17:17:07.454Z,16.37
2019-05-21T17:19:36.498Z,16.34
2019-05-21T17:22:05.534Z,16.28
2019-05-21T17:24:34.946Z,16.30
2019-05-21T17:27:04.406Z,16.15
2019-05-21T17:29:34.055Z,16.14
2019-05-21T17:32:06.369Z,16.21
2019-05-21T17:34:33.483Z,16.11
2019-05-21T17:37:04.227Z,16.19
2019-05-21T17:39:32.923Z,16.15
2019-05-21T17:42:14.724Z,16.10
2019-05-21T17:44:33.064Z,16.09
2019-05-21T17:47:01.744Z,16.25
2019-05-21T17:49:30.386Z,16.21
2019-05-21T17:51:59.099Z,16.10
2019-05-21T17:54:28.127Z,16.12
2019-05-21T17:56:56.776Z,16.11
2019-05-21T17:59:25.508Z,16.04
2019-05-21T18:01:54.756Z,16.08
2019-05-21T18:04:23.855Z,16.18
2019-05-21T18:06:52.608Z,16.23
2019-05-21T18:09:22.259Z,16.37
2019-05-21T18:11:51.647Z,16.40
2019-05-21T18:14:20.671Z,16.29
2019-05-21T18:16:49.954Z,16.25
2019-05-21T18:19:20.175Z,16.29
2019-05-21T18:21:50.237Z,16.34
2019-05-21T18:24:20.242Z,16.34
2019-05-21T18:26:49.723Z,16.29
2019-05-21T18:29:19.015Z,16.36
2019-05-21T18:31:48.111Z,16.19
2019-05-21T18:34:17.006Z,16.13
2019-05-21T18:36:46.030Z,16.09
2019-05-21T18:39:15.400Z,16.11
2019-05-21T18:41:44.114Z,16.12
2019-05-21T18:44:12.739Z,16.08
2019-05-21T18:46:41.696Z,16.12
2019-05-21T18:49:10.420Z,16.13
2019-05-21T18:51:39.446Z,16.14
2019-05-21T18:54:08.130Z,16.14
2019-05-21T18:56:37.027Z,16.38
2019-05-21T18:59:06.019Z,16.29
2019-05-21T19:01:38.171Z,16.38
2019-05-21T19:04:05.440Z,16.36
2019-05-21T19:06:34.743Z,16.29
2019-05-21T19:09:04.640Z,16.30
2019-05-21T19:11:33.299Z,16.21
2019-05-21T19:14:02.082Z,16.06
2019-05-21T19:16:30.730Z,16.10
2019-05-21T19:19:00.131Z,16.23
2019-05-21T19:21:29.035Z,16.19
2019-05-21T19:23:58.315Z,16.26
2019-05-21T19:26:26.948Z,16.31
2019-05-21T19:28:55.575Z,16.27
2019-05-21T19:31:24.639Z,16.28
2019-05-21T19:33:53.574Z,16.17
2019-05-21T19:36:22.729Z,16.30
2019-05-21T19:38:51.396Z,16.30
2019-05-21T19:41:20.361Z,16.18
2019-05-21T19:43:49.942Z,16.11
2019-05-21T19:46:18.670Z,16.29
2019-05-21T19:48:47.318Z,16.31
2019-05-21T19:51:16.556Z,16.34
2019-05-21T19:53:45.525Z,16.29
2019-05-21T19:56:14.440Z,16.30
2019-05-21T19:58:43.067Z,16.22
2019-05-21T20:01:12.344Z,16.12
2019-05-21T20:03:41.573Z,16.21
2019-05-21T20:06:10.188Z,16.17
2019-05-21T20:08:39.700Z,16.16
2019-05-21T20:11:09.198Z,16.02
2019-05-21T20:13:37.839Z,16.05
2019-05-21T20:16:06.578Z,16.02
2019-05-21T20:18:35.561Z,16.03
2019-05-21T20:21:06.826Z,15.88
2019-05-21T20:23:36.006Z,15.89
2019-05-21T20:26:04.906Z,15.77
2019-05-21T20:28:34.574Z,15.71
2019-05-21T20:31:04.025Z,15.67
2019-05-21T20:33:34.654Z,15.78
2019-05-21T20:36:03.887Z,15.82
2019-05-21T20:38:33.252Z,15.86
2019-05-21T20:41:02.039Z,15.87
2019-05-21T20:43:31.251Z,15.83
2019-05-21T20:46:00.295Z,15.85
2019-05-21T20:48:32.048Z,15.79
2019-05-21T20:51:02.411Z,15.78
2019-05-21T20:53:31.720Z,15.83
2019-05-21T20:56:00.813Z,15.82
2019-05-21T20:58:29.874Z,15.78
2019-05-21T21:01:01.178Z,15.77
2019-05-21T21:03:30.459Z,15.84
2019-05-21T21:05:59.244Z,15.79
2019-05-21T21:08:28.340Z,15.79
2019-05-21T21:10:57.127Z,15.78
2019-05-21T21:13:26.942Z,15.74
2019-05-21T21:15:55.576Z,15.74
2019-05-21T21:18:25.083Z,15.75
2019-05-21T21:20:54.027Z,15.77
2019-05-21T21:23:24.732Z,15.90
2019-05-21T21:25:53.866Z,15.96
2019-05-21T21:28:23.261Z,15.94
2019-05-21T21:30:51.888Z,15.82
2019-05-21T21:33:21.453Z,15.78
2019-05-21T21:35:50.473Z,15.70
2019-05-21T21:38:23.227Z,15.69
2019-05-21T21:40:51.874Z,15.77
2019-05-21T21:43:20.532Z,15.65
2019-05-21T21:45:49.338Z,15.64
2019-05-21T21:48:18.696Z,15.66
2019-05-21T21:50:47.688Z,15.68
2019-05-21T21:53:17.104Z,15.56
2019-05-21T21:55:46.077Z,15.51
2019-05-21T21:58:15.417Z,15.49
2019-05-21T22:01:19.991Z,15.45
2019-05-21T22:03:49.279Z,15.46
2019-05-21T22:06:19.536Z,15.45
2019-05-21T22:08:48.522Z,15.47
2019-05-21T22:11:18.309Z,15.44
2019-05-21T22:13:47.428Z,15.46
2019-05-21T22:16:17.065Z,15.44
2019-05-21T22:18:45.810Z,15.44
2019-05-21T22:21:14.613Z,15.43
2019-05-21T22:23:43.329Z,15.50
2019-05-21T22:26:11.989Z,15.58
2019-05-21T22:28:40.977Z,15.60
2019-05-21T22:31:10.301Z,15.67
2019-05-21T22:33:39.490Z,15.74
2019-05-21T22:36:08.690Z,15.75
2019-05-21T22:38:37.682Z,15.77
2019-05-21T22:41:06.788Z,15.76
2019-05-21T22:43:35.822Z,15.73
2019-05-21T22:46:05.286Z,15.64
2019-05-21T22:48:34.891Z,15.72
2019-05-21T22:51:03.606Z,15.77
2019-05-21T22:53:32.251Z,15.81
2019-05-21T22:56:00.990Z,15.84
2019-05-21T22:58:30.256Z,15.81
2019-05-21T23:01:00.474Z,15.85
2019-05-21T23:03:30.089Z,15.86
2019-05-21T23:05:58.707Z,15.79
2019-05-21T23:08:28.383Z,15.79
2019-05-21T23:10:57.101Z,15.77
2019-05-21T23:13:26.061Z,15.69
2019-05-21T23:15:55.256Z,15.57
2019-05-21T23:18:24.542Z,15.52
2019-05-21T23:20:53.596Z,15.40
2019-05-21T23:23:24.295Z,15.30
2019-05-21T23:25:54.640Z,15.22
2019-05-21T23:41:59.591Z,14.94
2019-05-21T23:44:55.873Z,14.85
2019-05-21T23:47:24.904Z,14.90
2019-05-21T23:49:54.677Z,14.80
2019-05-21T23:52:24.292Z,14.81
2019-05-21T23:54:53.223Z,14.76
2019-05-21T23:57:30.311Z,14.81
2019-05-21T23:59:59.047Z,14.67
